Highlands Peak, California Weather observations

Data are for observation ending at time listed.
 Day   Time    Ave.   Ave.  Ave.  Vector   Max.   Stn.    Total    Solar   Ave.  
  of    of     Air    Rel.  Wind   Wind    Wind   Baro.  Precip.   Rad.    Soil  
Year   Day     Temp.  Hum.  Speed  Dir.    Gust   Pres.                    Temp. 
2016   (PST)    F      %     mph   deg.    mph     mb.     in.     W/m2     F   
------------------------------------------------------------------------------
 144   20:50   45.4    96    1.6   176      3.5   926.3    0.00       0    71.7
 144   21:00   45.5    96    3.5    14      5.6   926.3    0.00       0    71.5
 144   21:10   46.5    95    5.3    15      8.0   926.3    0.00       0    71.4
 144   21:20   48.1    84    5.5    26      8.8   926.3    0.00       0    71.1
 144   21:30   49.2    76    4.5    28      7.4   926.3    0.00       0    70.9
 144   21:40   49.5    71    4.3    39      5.8   926.3    0.00       0    70.7
 144   21:50   49.4    69    4.0     6      5.1   926.3    0.00       0    70.5
 144   22:00   49.8    70    3.9   326      5.8   926.3    0.00       0    70.4
 144   22:10   48.7    74    3.0   323      4.2   926.2    0.00       0    70.2
 144   22:20   48.6    78    2.6   285      5.0   926.3    0.00       0    69.9
 144   22:30   48.5    79    4.0   276      6.1   926.3    0.00       0    69.7
 144   22:40   47.8    80    3.5   301      5.8   926.3    0.00       0    69.5
 144   22:50   46.9    84    2.8   320      4.8   926.2    0.00       0    69.4
 144   23:00   47.7    83    3.0   308      4.5   926.2    0.00       0    69.2
 144   23:10   47.7    81    2.0   352      3.5   926.3    0.00       0    69.1
 144   23:20   48.7    75    0.5    53      1.9   926.3    0.00       0    68.9
 144   23:30   49.4    72    1.1    54      2.1   926.3    0.00       0    68.7
 144   23:40   49.4    71    2.1    79      2.9   926.3    0.00       0    68.6
 144   23:50   49.5    71    2.6    72      3.1   926.2    0.00       0    68.5
 145    0:00   49.9    68    1.9    70      2.5   926.2    0.00       0    68.3
 145    0:10   49.5    72    2.8   125      5.2   926.2    0.00       0    68.1
 145    0:20   46.5    83    4.0   133      5.1   926.1    0.00       0    68.0
 145    0:30   48.0    78    2.5   136      3.4   926.0    0.00       0    67.9
 145    0:40   48.5    77    1.0   134      3.0   926.0    0.00       0    67.7
 145    0:50   47.6    81    2.4   135      3.8   926.1    0.00       0    67.5
 145    1:00   46.7    77    3.4    72      4.5   926.0    0.00       0    67.3
 145    1:10   46.7    78    1.8   292      3.7   925.9    0.00       0    67.1
 145    1:20   45.6    81    4.2    52      6.3   925.9    0.00       0    67.0
 145    1:30   45.7    76    4.8    38      6.1   925.8    0.00       0    66.7
 145    1:40   47.0    72    2.6   344      4.4   925.7    0.00       0    66.6
 145    1:50   47.4    71    3.3    18      4.7   925.7    0.00       0    66.5
 145    2:00   46.9    73    2.8   344      4.1   925.7    0.00       0    66.4
 145    2:10   46.8    74    3.0     6      5.5   925.6    0.00       0    66.3
 145    2:20   47.1    72    4.5    38      5.6   925.6    0.00       0    66.0
 145    2:30   48.8    69    3.6   353      4.8   925.6    0.00       0    65.9
 145    2:40   50.1    64    1.8   318      3.7   925.6    0.00       0    65.8
 145    2:50   50.5    65    2.7   276      3.0   925.7    0.00       0    65.5
 145    3:00   49.0    69    2.1   236      3.3   925.8    0.00       0    65.3
 145    3:10   46.8    75    1.9    62      4.2   925.8    0.00       0    65.3
 145    3:20   44.9    80    3.0    61      5.0   925.8    0.00       0    65.2
 145    3:30   44.5    83    1.2   338      2.6   925.8    0.00       0    65.1
 145    3:40   44.9    80    2.2    71      4.5   925.9    0.00       0    65.0
 145    3:50   45.9    76    2.8    53      5.8   925.9    0.00       0    64.9
 145    4:00   46.9    73    1.6    70      2.9   925.9    0.00       0    64.7
 145    4:10   47.6    72    2.4    62      3.3   925.9    0.00       0    64.6
 145    4:20   48.2    72    0.6    83      2.5   925.9    0.00       0    64.4
 145    4:30   47.9    72    1.4    69      3.5   926.0    0.00       0    64.3
 145    4:40   46.4    79    3.0    89      3.6   926.0    0.00       0    64.3
 145    4:50   46.2    79    1.0    90      2.3   925.9    0.00       1    64.2
 145    5:00   47.4    77    0.8   164      3.1   926.0    0.00       4    64.0
 145    5:10   47.1    75    4.1    64      7.6   926.1    0.00       9    63.9
 145    5:20   47.2    72    6.1    56      7.8   926.1    0.00      15    63.7
 145    5:30   47.4    72    5.8    48      8.3   926.1    0.00      20    63.6
 145    5:40   47.0    73    4.0    42      6.8   926.2    0.00      25    63.5
 145    5:50   46.5    74    5.6    39      7.2   926.2    0.00      29    63.4
 145    6:00   45.9    77    4.8    44      6.4   926.3    0.00      87    63.3
 145    6:10   47.5    74    3.1    36      5.1   926.5    0.00     205    63.2
 145    6:20   46.9    80    1.7   236      4.5   926.7    0.00     205    63.0
 145    6:30   46.7    88    1.7    94      3.3   926.9    0.00     284    63.0
 145    6:40   46.4    86    0.8   292      1.7   927.1    0.00     327    62.8
 145    6:50   47.4    86    1.6   254      3.5   927.1    0.00     353    62.8
 145    7:00   46.4    90    1.4   243      3.4   927.2    0.00     360    62.7
 145    7:10   47.4    90    1.9   111      4.2   927.3    0.00     307    62.7
 145    7:20   48.7    86    1.9   108      3.3   927.3    0.00     468    62.8
 145    7:30   51.0    73    1.3   230      3.1   927.4    0.00     503    62.7
 145    7:40   49.0    85    2.6   260      5.3   927.5    0.00     528    62.6
 145    7:50   49.8    85    2.7    17      6.1   927.6    0.00     594    62.7
 145    8:00   50.4    83    1.9   280      3.4   927.7    0.00     621    62.7
 145    8:10   50.3    84    1.3   219      3.2   927.8    0.00     416    62.8
 145    8:20   51.5    82    1.4   235      2.9   927.8    0.00     691    62.9
 145    8:30   51.7    82    3.1   250      4.7   928.0    0.00     751    63.0
 145    8:40   51.5    83    3.0   249      5.2   928.0    0.00     743    63.1
 145    8:50   51.6    83    3.4   267      5.6   928.1    0.00     555    63.2
 145    9:00   50.5    86    2.3   261      4.5   928.2    0.00     397    63.4
 145    9:10   50.4    87    2.9   270      6.1   928.3    0.00     338    63.6
 145    9:20   50.2    89    2.5   266      5.3   928.4    0.00     500    63.8
 145    9:30   51.8    85    2.7   252      6.6   928.5    0.00     683    64.0
 145    9:40   51.0    86    5.2   264      7.6   928.6    0.00     371    64.1
 145    9:50   49.7    90    4.8   255      7.3   928.7    0.00     393    64.3
 145   10:00   50.0    90    3.8   278      6.8   928.8    0.00     362    64.6
 145   10:10   49.5    90    2.7   271      4.0   928.9    0.00     367    64.7
 145   10:20   49.0    92    2.1   263      3.5   929.0    0.00     421    64.9
 145   10:30   50.4    89    3.0   264      5.6   929.1    0.00     504    65.1
 145   10:40   51.1    87    2.6   265      4.5   929.2    0.00     563    65.2
 145   10:50   50.8    86    4.1   257      7.4   929.3    0.00     419    65.4
 145   11:00   50.7    88    2.4   230      5.0   929.4    0.00     439    65.5
 145   11:10   50.8    86    1.8   273      4.3   929.4    0.00     420    65.7
 145   11:20   50.4    88    2.8   253      4.6   929.4    0.00     465    65.8
 145   11:30   50.4    88    2.4   258      5.0   929.4    0.00     531    66.0
 145   11:40   50.7    88    3.2   287      5.8   929.4    0.00     546    66.1
 145   11:50   53.2    82    3.3   269      6.2   929.4    0.00     804    66.2
 145   12:00   53.2    81    4.3   273      6.7   929.4    0.00     883    66.4
 145   12:10   54.0    80    4.7   269      7.5   929.3    0.00     806    66.5
 145   12:20   54.9    77    5.0   254      9.1   929.4    0.00     731    66.7
 145   12:30   53.6    79    6.1   265      9.8   929.5    0.00     507    66.9
 145   12:40   52.9    81    5.5   256      9.1   929.6    0.00     571    67.0
 145   12:50   53.2    79    4.9   254      9.8   929.6    0.00     514    67.2
 145   13:00   52.4    81    5.1   256      7.6   929.5    0.00     574    67.4
 145   13:10   52.6    81    4.8   278      8.6   929.5    0.00     450    67.5
 145   13:20   51.7    83    4.4   271      7.1   929.6    0.00     357    67.7
 145   13:30   51.7    84    3.8   261      7.3   929.6    0.00     445    67.9
 145   13:40   52.0    83    4.3   280      7.8   929.6    0.00     333    68.0
 145   13:50   51.1    86    4.3   254      7.7   929.7    0.00     301    68.2
 145   14:00   50.5    87    4.7   257      8.3   929.7    0.00     302    68.3
 145   14:10   50.1    87    3.8   267      7.2   929.8    0.00     374    68.5
 145   14:20   50.4    87    4.9   260      8.8   929.8    0.00     402    68.6
 145   14:30   51.0    85    4.7   276      9.0   929.7    0.00     505    68.6
 145   14:40   52.1    82    4.3   284      7.9   929.7    0.00     510    68.7
 145   14:50   52.0    83    4.8   250      8.7   929.7    0.00     494    68.8
 145   15:00   52.7    82    7.1   270     13.3   929.7    0.00     484    68.9
 145   15:10   53.4    80    6.2   266      8.9   929.7    0.00     544    69.0
 145   15:20   52.1    82    5.7   268      9.0   929.7    0.00     377    69.1
 145   15:30   51.4    84    5.9   265      8.0   929.7    0.00     332    69.2
 145   15:40   51.3    85    5.7   278      8.3   929.6    0.00     331    69.3
 145   15:50   51.3    84    5.4   271     10.7   929.6    0.00     490    69.4
 145   16:00   52.4    82    5.0   271      7.7   929.6    0.00     457    69.5
 145   16:10   51.9    83    5.4   262      7.5   929.6    0.00     476    69.6
 145   16:20   50.8    86    4.6   259      7.9   929.6    0.00     317    69.7
 145   16:30   50.7    87    4.9   271     12.3   929.5    0.00     221    69.8
 145   16:40   50.4    86    6.8   261     10.4   929.6    0.00     215    69.9
 145   16:50   49.4    88    6.6   268     10.2   929.6    0.00     175    70.0
 145   17:00   48.8    89    6.0   279      8.8   929.6    0.00     109    70.1
 145   17:10   47.9    90    5.3   285      7.0   929.5    0.00      93    70.2
 145   17:20   47.4    92    5.2   282      7.2   929.5    0.00      84    70.2
 145   17:30   47.1    93    5.4   280      7.5   929.4    0.00      73    70.2
 145   17:40   47.0    94    5.6   282      7.8   929.4    0.00      81    70.2
 145   17:50   47.0    94    6.3   281      8.8   929.3    0.00      99    70.1
 145   18:00   47.2    94    6.0   274      8.2   929.3    0.00      96    70.1
 145   18:10   47.0    95    6.3   274      8.9   929.4    0.00      70    70.1
 145   18:20   46.9    95    6.0   288      9.1   929.4    0.00      69    70.1
 145   18:30   46.7    95    5.2   283      8.0   929.4    0.00      61    70.0
 145   18:40   46.7    96    4.3   280      6.1   929.4    0.00      34    70.0
 145   18:50   46.6    96    4.2   276      6.1   929.4    0.00      21    69.9
 145   19:00   46.6    96    3.6   264      5.3   929.5    0.00       9    69.8
 145   19:10   46.5    96    4.7   259      8.6   929.6    0.00       4    69.7
 145   19:20   46.4    96    5.0   272      7.5   929.7    0.00       1    69.6
 145   19:30   46.3    96    3.8   296      6.4   929.8    0.00       0    69.5
 145   19:40   46.3    96    2.9   301      4.3   929.8    0.00       0    69.5
 145   19:50   46.2    97    2.5   331      4.3   929.8    0.00       0    69.4
 145   20:00   46.3    97    1.9    38      4.2   929.7    0.00       0    69.3
 145   20:10   46.3    97    3.1    97      5.5   929.8    0.00       0    69.2
 145   20:20   46.0    97    4.3   134      5.8   929.9    0.00       0    69.1
 145   20:30   45.7    97    5.5   139      6.9   930.0    0.00       0    69.0
 145   20:40   45.6    97    2.8   114      6.1   930.1    0.00       0    68.9

Return to Highlands Peak graphs page.


Western Regional Climate Center,wrcc@dri.edu